Amistad, New Mexico
Current Conditions -  °F | °C
As of 6:53 PM on Tuesday 21 Oct 2014 (Local Time) from KDHT Reporting Station
Clear Clear  
Wind Chill: 18°   Ceiling: Unl
Heat Index: 18°   Visibility: 10mi
Dew Point:   Wind: 12mph
Humidity: 50%   Direction: 160°SSE
Pressure: 30.04"   Gusts: NA
Location:  35.92°N, 103.16°W
Report Text: KDHT 220053Z AUTO 16010KT 10SM CLR 18/07 A3004 RMK AO2 SLP144 T01780072
Loading
Personal Weather Stations






























Interactive Weather Map
Tropical Storm Tracking
New forecast layout! Learn more

10-Day Weather Forecast

Advertisements
Track Severe Weather on mobile